sensor_id;sensor_type;location;lat;lon;timestamp;temperature;humidity
24326;DHT22;12448;45.532;5.290;2023-04-25T00:02:21;13.40;81.30
24326;DHT22;12448;45.532;5.290;2023-04-25T00:04:47;13.30;81.00
24326;DHT22;12448;45.532;5.290;2023-04-25T00:07:15;13.30;81.30
24326;DHT22;12448;45.532;5.290;2023-04-25T00:09:41;13.30;81.80
24326;DHT22;12448;45.532;5.290;2023-04-25T00:12:07;13.30;82.40
24326;DHT22;12448;45.532;5.290;2023-04-25T00:14:32;13.40;82.10
24326;DHT22;12448;45.532;5.290;2023-04-25T00:17:01;13.30;82.30
24326;DHT22;12448;45.532;5.290;2023-04-25T00:19:28;13.30;82.90
24326;DHT22;12448;45.532;5.290;2023-04-25T00:21:55;13.30;83.30
24326;DHT22;12448;45.532;5.290;2023-04-25T00:24:21;13.30;83.80
24326;DHT22;12448;45.532;5.290;2023-04-25T00:26:46;13.30;83.50
24326;DHT22;12448;45.532;5.290;2023-04-25T00:29:12;13.30;82.20
24326;DHT22;12448;45.532;5.290;2023-04-25T00:31:38;13.10;82.30
24326;DHT22;12448;45.532;5.290;2023-04-25T00:34:03;13.20;82.70
24326;DHT22;12448;45.532;5.290;2023-04-25T00:36:29;13.00;82.70
24326;DHT22;12448;45.532;5.290;2023-04-25T00:38:55;13.00;83.00
24326;DHT22;12448;45.532;5.290;2023-04-25T00:41:21;13.10;82.70
24326;DHT22;12448;45.532;5.290;2023-04-25T00:43:48;13.10;82.30
24326;DHT22;12448;45.532;5.290;2023-04-25T00:46:14;13.10;81.40
24326;DHT22;12448;45.532;5.290;2023-04-25T00:48:39;13.10;81.20
24326;DHT22;12448;45.532;5.290;2023-04-25T00:51:05;13.20;80.80
24326;DHT22;12448;45.532;5.290;2023-04-25T00:53:31;13.30;80.70
24326;DHT22;12448;45.532;5.290;2023-04-25T00:55:58;13.10;80.50
24326;DHT22;12448;45.532;5.290;2023-04-25T00:58:24;13.00;81.40
24326;DHT22;12448;45.532;5.290;2023-04-25T01:00:51;13.10;82.40
24326;DHT22;12448;45.532;5.290;2023-04-25T01:03:17;12.90;81.80
24326;DHT22;12448;45.532;5.290;2023-04-25T01:05:45;12.70;83.20
24326;DHT22;12448;45.532;5.290;2023-04-25T01:08:12;12.90;83.30
24326;DHT22;12448;45.532;5.290;2023-04-25T01:10:38;12.60;82.90
24326;DHT22;12448;45.532;5.290;2023-04-25T01:13:03;12.50;83.00
24326;DHT22;12448;45.532;5.290;2023-04-25T01:15:29;12.40;83.40
24326;DHT22;12448;45.532;5.290;2023-04-25T01:18:01;12.50;83.50
24326;DHT22;12448;45.532;5.290;2023-04-25T01:20:28;12.40;83.50
24326;DHT22;12448;45.532;5.290;2023-04-25T01:22:55;12.40;83.70
24326;DHT22;12448;45.532;5.290;2023-04-25T01:25:22;12.50;84.10
24326;DHT22;12448;45.532;5.290;2023-04-25T01:27:48;12.50;84.00
24326;DHT22;12448;45.532;5.290;2023-04-25T01:30:14;12.60;83.90
24326;DHT22;12448;45.532;5.290;2023-04-25T01:33:22;12.60;83.40
24326;DHT22;12448;45.532;5.290;2023-04-25T01:35:53;12.60;82.70
24326;DHT22;12448;45.532;5.290;2023-04-25T01:38:19;12.50;82.80
24326;DHT22;12448;45.532;5.290;2023-04-25T01:40:46;12.30;83.20
24326;DHT22;12448;45.532;5.290;2023-04-25T01:43:14;12.20;83.80
24326;DHT22;12448;45.532;5.290;2023-04-25T01:45:41;12.00;84.30
24326;DHT22;12448;45.532;5.290;2023-04-25T01:48:08;11.80;85.00
24326;DHT22;12448;45.532;5.290;2023-04-25T01:50:38;11.90;85.40
24326;DHT22;12448;45.532;5.290;2023-04-25T01:53:05;11.90;85.40
24326;DHT22;12448;45.532;5.290;2023-04-25T01:55:31;11.90;85.30
24326;DHT22;12448;45.532;5.290;2023-04-25T01:57:56;11.70;85.10
24326;DHT22;12448;45.532;5.290;2023-04-25T02:00:23;11.80;85.60
24326;DHT22;12448;45.532;5.290;2023-04-25T02:02:48;11.40;85.90
24326;DHT22;12448;45.532;5.290;2023-04-25T02:05:18;11.40;86.30
24326;DHT22;12448;45.532;5.290;2023-04-25T02:07:47;11.40;87.10
24326;DHT22;12448;45.532;5.290;2023-04-25T02:10:13;11.60;86.30
24326;DHT22;12448;45.532;5.290;2023-04-25T02:12:39;11.30;86.00
24326;DHT22;12448;45.532;5.290;2023-04-25T02:15:05;11.20;84.80
24326;DHT22;12448;45.532;5.290;2023-04-25T02:17:31;11.10;85.30
24326;DHT22;12448;45.532;5.290;2023-04-25T02:19:57;11.00;85.50
24326;DHT22;12448;45.532;5.290;2023-04-25T02:22:23;11.40;85.80
24326;DHT22;12448;45.532;5.290;2023-04-25T02:24:49;11.20;85.10
24326;DHT22;12448;45.532;5.290;2023-04-25T02:27:15;11.20;84.40
24326;DHT22;12448;45.532;5.290;2023-04-25T02:29:40;11.20;84.50
24326;DHT22;12448;45.532;5.290;2023-04-25T02:32:06;11.40;84.90
24326;DHT22;12448;45.532;5.290;2023-04-25T02:34:31;11.20;85.20
24326;DHT22;12448;45.532;5.290;2023-04-25T02:36:57;11.30;85.70
24326;DHT22;12448;45.532;5.290;2023-04-25T02:39:23;11.30;86.00
24326;DHT22;12448;45.532;5.290;2023-04-25T02:41:51;11.40;86.10
24326;DHT22;12448;45.532;5.290;2023-04-25T02:44:16;11.40;86.40
24326;DHT22;12448;45.532;5.290;2023-04-25T02:46:42;11.30;86.70
24326;DHT22;12448;45.532;5.290;2023-04-25T02:49:08;11.30;86.90
24326;DHT22;12448;45.532;5.290;2023-04-25T02:51:37;11.40;87.20
24326;DHT22;12448;45.532;5.290;2023-04-25T02:54:02;11.40;87.10
24326;DHT22;12448;45.532;5.290;2023-04-25T02:56:28;11.40;87.10
24326;DHT22;12448;45.532;5.290;2023-04-25T02:58:54;11.80;87.50
24326;DHT22;12448;45.532;5.290;2023-04-25T03:01:20;11.50;87.30
24326;DHT22;12448;45.532;5.290;2023-04-25T03:03:45;11.80;87.60
24326;DHT22;12448;45.532;5.290;2023-04-25T03:06:11;11.50;87.40
24326;DHT22;12448;45.532;5.290;2023-04-25T03:08:37;11.70;87.30
24326;DHT22;12448;45.532;5.290;2023-04-25T03:11:02;11.50;87.30
24326;DHT22;12448;45.532;5.290;2023-04-25T03:13:28;11.50;87.60
24326;DHT22;12448;45.532;5.290;2023-04-25T03:15:55;11.50;87.60
24326;DHT22;12448;45.532;5.290;2023-04-25T03:18:20;11.60;87.60
24326;DHT22;12448;45.532;5.290;2023-04-25T03:20:46;11.50;87.60
24326;DHT22;12448;45.532;5.290;2023-04-25T03:23:12;11.50;87.70
24326;DHT22;12448;45.532;5.290;2023-04-25T03:25:37;11.60;88.00
24326;DHT22;12448;45.532;5.290;2023-04-25T03:28:03;11.50;88.00
24326;DHT22;12448;45.532;5.290;2023-04-25T03:30:29;11.50;88.30
24326;DHT22;12448;45.532;5.290;2023-04-25T03:32:54;11.60;88.40
24326;DHT22;12448;45.532;5.290;2023-04-25T03:35:20;11.70;88.40
24326;DHT22;12448;45.532;5.290;2023-04-25T03:37:46;11.60;88.40
24326;DHT22;12448;45.532;5.290;2023-04-25T03:40:12;11.60;88.20
24326;DHT22;12448;45.532;5.290;2023-04-25T03:42:37;11.70;88.50
24326;DHT22;12448;45.532;5.290;2023-04-25T03:45:04;11.90;88.60
24326;DHT22;12448;45.532;5.290;2023-04-25T03:47:30;11.80;88.50
24326;DHT22;12448;45.532;5.290;2023-04-25T03:49:56;11.80;88.20
24326;DHT22;12448;45.532;5.290;2023-04-25T03:52:21;11.80;88.20
24326;DHT22;12448;45.532;5.290;2023-04-25T03:54:47;12.10;88.50
24326;DHT22;12448;45.532;5.290;2023-04-25T03:57:13;11.80;88.30
24326;DHT22;12448;45.532;5.290;2023-04-25T03:59:39;11.80;88.60
24326;DHT22;12448;45.532;5.290;2023-04-25T04:02:05;11.80;88.60
24326;DHT22;12448;45.532;5.290;2023-04-25T04:04:30;11.80;88.40
24326;DHT22;12448;45.532;5.290;2023-04-25T04:06:56;11.80;88.30
24326;DHT22;12448;45.532;5.290;2023-04-25T04:09:22;11.80;88.40
24326;DHT22;12448;45.532;5.290;2023-04-25T04:11:47;11.80;88.50
24326;DHT22;12448;45.532;5.290;2023-04-25T04:14:13;11.80;88.70
24326;DHT22;12448;45.532;5.290;2023-04-25T04:16:39;11.70;88.50
24326;DHT22;12448;45.532;5.290;2023-04-25T04:19:05;12.10;88.80
24326;DHT22;12448;45.532;5.290;2023-04-25T04:21:31;11.70;88.60
24326;DHT22;12448;45.532;5.290;2023-04-25T04:23:57;11.70;88.60
24326;DHT22;12448;45.532;5.290;2023-04-25T04:26:25;11.70;89.00
24326;DHT22;12448;45.532;5.290;2023-04-25T04:28:51;11.60;89.20
24326;DHT22;12448;45.532;5.290;2023-04-25T04:31:20;11.60;89.30
24326;DHT22;12448;45.532;5.290;2023-04-25T04:33:45;12.00;89.70
24326;DHT22;12448;45.532;5.290;2023-04-25T04:36:11;11.50;89.50
24326;DHT22;12448;45.532;5.290;2023-04-25T04:38:38;11.60;89.70
24326;DHT22;12448;45.532;5.290;2023-04-25T04:41:08;11.60;89.70
24326;DHT22;12448;45.532;5.290;2023-04-25T04:43:34;11.50;89.70
24326;DHT22;12448;45.532;5.290;2023-04-25T04:46:02;11.40;89.90
24326;DHT22;12448;45.532;5.290;2023-04-25T04:48:32;11.40;90.10
24326;DHT22;12448;45.532;5.290;2023-04-25T04:50:59;11.40;90.20
24326;DHT22;12448;45.532;5.290;2023-04-25T04:53:25;11.50;90.20
24326;DHT22;12448;45.532;5.290;2023-04-25T04:55:51;11.40;90.30
24326;DHT22;12448;45.532;5.290;2023-04-25T04:58:17;11.30;90.40
24326;DHT22;12448;45.532;5.290;2023-04-25T05:00:42;11.30;90.50
24326;DHT22;12448;45.532;5.290;2023-04-25T05:03:08;11.20;90.60
24326;DHT22;12448;45.532;5.290;2023-04-25T05:05:34;11.40;90.90
24326;DHT22;12448;45.532;5.290;2023-04-25T05:07:59;11.40;91.10
24326;DHT22;12448;45.532;5.290;2023-04-25T05:10:26;11.20;91.10
24326;DHT22;12448;45.532;5.290;2023-04-25T05:12:51;11.10;91.10
24326;DHT22;12448;45.532;5.290;2023-04-25T05:15:17;11.10;91.20
24326;DHT22;12448;45.532;5.290;2023-04-25T05:17:45;11.10;91.30
24326;DHT22;12448;45.532;5.290;2023-04-25T05:20:11;11.20;91.40
24326;DHT22;12448;45.532;5.290;2023-04-25T05:22:39;11.00;91.40
24326;DHT22;12448;45.532;5.290;2023-04-25T05:25:09;11.00;91.40
24326;DHT22;12448;45.532;5.290;2023-04-25T05:27:35;11.40;91.50
24326;DHT22;12448;45.532;5.290;2023-04-25T05:30:01;11.10;91.50
24326;DHT22;12448;45.532;5.290;2023-04-25T05:32:26;11.10;91.50
24326;DHT22;12448;45.532;5.290;2023-04-25T05:34:52;11.10;91.60
24326;DHT22;12448;45.532;5.290;2023-04-25T05:37:18;11.10;91.40
24326;DHT22;12448;45.532;5.290;2023-04-25T05:39:44;11.10;91.50
24326;DHT22;12448;45.532;5.290;2023-04-25T05:42:09;11.10;91.60
24326;DHT22;12448;45.532;5.290;2023-04-25T05:44:35;11.10;91.70
24326;DHT22;12448;45.532;5.290;2023-04-25T05:47:01;11.40;91.80
24326;DHT22;12448;45.532;5.290;2023-04-25T05:49:26;11.10;91.60
24326;DHT22;12448;45.532;5.290;2023-04-25T05:51:52;11.10;91.60
24326;DHT22;12448;45.532;5.290;2023-04-25T05:54:18;11.10;91.60
24326;DHT22;12448;45.532;5.290;2023-04-25T05:56:44;11.10;91.50
24326;DHT22;12448;45.532;5.290;2023-04-25T05:59:09;11.20;91.50
24326;DHT22;12448;45.532;5.290;2023-04-25T06:01:35;11.20;91.40
24326;DHT22;12448;45.532;5.290;2023-04-25T06:04:01;11.20;91.20
24326;DHT22;12448;45.532;5.290;2023-04-25T06:06:27;11.30;91.20
24326;DHT22;12448;45.532;5.290;2023-04-25T06:08:53;11.30;91.00
24326;DHT22;12448;45.532;5.290;2023-04-25T06:11:19;11.30;91.00
24326;DHT22;12448;45.532;5.290;2023-04-25T06:13:48;11.30;91.00
24326;DHT22;12448;45.532;5.290;2023-04-25T06:16:13;11.30;91.30
24326;DHT22;12448;45.532;5.290;2023-04-25T06:18:39;11.30;91.00
24326;DHT22;12448;45.532;5.290;2023-04-25T06:21:08;11.40;91.00
24326;DHT22;12448;45.532;5.290;2023-04-25T06:23:33;11.50;91.30
24326;DHT22;12448;45.532;5.290;2023-04-25T06:25:59;11.50;91.00
24326;DHT22;12448;45.532;5.290;2023-04-25T06:28:25;11.60;90.90
24326;DHT22;12448;45.532;5.290;2023-04-25T06:30:51;11.70;90.90
24326;DHT22;12448;45.532;5.290;2023-04-25T06:33:17;11.80;90.80
24326;DHT22;12448;45.532;5.290;2023-04-25T06:35:43;11.80;90.70
24326;DHT22;12448;45.532;5.290;2023-04-25T06:38:08;11.70;90.80
24326;DHT22;12448;45.532;5.290;2023-04-25T06:40:34;11.60;90.80
24326;DHT22;12448;45.532;5.290;2023-04-25T06:43:00;11.60;91.30
24326;DHT22;12448;45.532;5.290;2023-04-25T06:45:25;11.60;91.30
24326;DHT22;12448;45.532;5.290;2023-04-25T06:47:51;11.70;91.30
24326;DHT22;12448;45.532;5.290;2023-04-25T06:50:20;11.80;90.80
24326;DHT22;12448;45.532;5.290;2023-04-25T06:52:48;11.80;90.90
24326;DHT22;12448;45.532;5.290;2023-04-25T06:55:14;11.80;91.00
24326;DHT22;12448;45.532;5.290;2023-04-25T06:57:40;11.80;91.10
24326;DHT22;12448;45.532;5.290;2023-04-25T07:00:12;11.90;91.40
24326;DHT22;12448;45.532;5.290;2023-04-25T07:02:38;11.90;91.00
24326;DHT22;12448;45.532;5.290;2023-04-25T07:05:04;11.90;91.00
24326;DHT22;12448;45.532;5.290;2023-04-25T07:07:30;11.90;91.10
24326;DHT22;12448;45.532;5.290;2023-04-25T07:09:59;12.00;90.80
24326;DHT22;12448;45.532;5.290;2023-04-25T07:12:25;12.00;90.70
24326;DHT22;12448;45.532;5.290;2023-04-25T07:14:50;12.00;90.70
24326;DHT22;12448;45.532;5.290;2023-04-25T07:20:32;12.00;90.40
24326;DHT22;12448;45.532;5.290;2023-04-25T07:23:01;12.10;90.40
24326;DHT22;12448;45.532;5.290;2023-04-25T07:25:27;12.10;90.30
24326;DHT22;12448;45.532;5.290;2023-04-25T07:27:53;12.10;90.00
24326;DHT22;12448;45.532;5.290;2023-04-25T07:30:18;12.10;89.70
24326;DHT22;12448;45.532;5.290;2023-04-25T07:32:44;12.20;89.60
24326;DHT22;12448;45.532;5.290;2023-04-25T07:35:10;12.30;90.00
24326;DHT22;12448;45.532;5.290;2023-04-25T07:37:36;12.30;89.70
24326;DHT22;12448;45.532;5.290;2023-04-25T07:40:03;12.40;88.90
24326;DHT22;12448;45.532;5.290;2023-04-25T07:42:31;12.40;88.60
24326;DHT22;12448;45.532;5.290;2023-04-25T07:44:57;12.40;89.00
24326;DHT22;12448;45.532;5.290;2023-04-25T07:47:23;12.40;88.10
24326;DHT22;12448;45.532;5.290;2023-04-25T07:49:49;12.40;87.20
24326;DHT22;12448;45.532;5.290;2023-04-25T07:52:15;12.30;87.10
24326;DHT22;12448;45.532;5.290;2023-04-25T07:54:41;12.30;86.70
24326;DHT22;12448;45.532;5.290;2023-04-25T07:57:07;12.30;85.50
24326;DHT22;12448;45.532;5.290;2023-04-25T07:59:33;12.20;86.70
24326;DHT22;12448;45.532;5.290;2023-04-25T08:01:59;12.10;86.90
24326;DHT22;12448;45.532;5.290;2023-04-25T08:04:25;12.10;87.00
24326;DHT22;12448;45.532;5.290;2023-04-25T08:06:51;12.20;87.40
24326;DHT22;12448;45.532;5.290;2023-04-25T08:09:19;12.30;87.30
24326;DHT22;12448;45.532;5.290;2023-04-25T08:11:45;12.30;86.60
24326;DHT22;12448;45.532;5.290;2023-04-25T08:14:12;12.40;86.80
24326;DHT22;12448;45.532;5.290;2023-04-25T08:16:37;12.50;87.10
24326;DHT22;12448;45.532;5.290;2023-04-25T08:19:03;12.60;87.50
24326;DHT22;12448;45.532;5.290;2023-04-25T08:21:29;12.80;85.50
24326;DHT22;12448;45.532;5.290;2023-04-25T08:23:55;12.30;83.50
24326;DHT22;12448;45.532;5.290;2023-04-25T08:26:21;12.50;84.80
24326;DHT22;12448;45.532;5.290;2023-04-25T08:28:46;12.30;84.80
24326;DHT22;12448;45.532;5.290;2023-04-25T08:31:12;12.50;85.30
24326;DHT22;12448;45.532;5.290;2023-04-25T08:33:38;12.30;85.60
24326;DHT22;12448;45.532;5.290;2023-04-25T08:36:03;12.30;85.50
24326;DHT22;12448;45.532;5.290;2023-04-25T08:38:29;12.40;85.70
24326;DHT22;12448;45.532;5.290;2023-04-25T08:40:56;12.50;84.90
24326;DHT22;12448;45.532;5.290;2023-04-25T08:43:23;12.50;83.00
24326;DHT22;12448;45.532;5.290;2023-04-25T08:45:53;12.50;83.70
24326;DHT22;12448;45.532;5.290;2023-04-25T08:48:22;12.50;83.00
24326;DHT22;12448;45.532;5.290;2023-04-25T08:50:51;12.50;82.70
24326;DHT22;12448;45.532;5.290;2023-04-25T08:53:32;12.50;82.90
24326;DHT22;12448;45.532;5.290;2023-04-25T08:55:59;12.70;82.10
24326;DHT22;12448;45.532;5.290;2023-04-25T08:58:30;12.80;82.60
24326;DHT22;12448;45.532;5.290;2023-04-25T09:00:57;12.80;80.80
24326;DHT22;12448;45.532;5.290;2023-04-25T09:03:23;12.60;81.10
24326;DHT22;12448;45.532;5.290;2023-04-25T09:05:49;12.40;80.60
24326;DHT22;12448;45.532;5.290;2023-04-25T09:08:15;12.40;79.80
24326;DHT22;12448;45.532;5.290;2023-04-25T09:10:41;12.50;80.60
24326;DHT22;12448;45.532;5.290;2023-04-25T09:13:10;12.60;79.30
24326;DHT22;12448;45.532;5.290;2023-04-25T09:18:12;12.80;78.80
24326;DHT22;12448;45.532;5.290;2023-04-25T09:20:42;12.80;78.70
24326;DHT22;12448;45.532;5.290;2023-04-25T09:23:08;12.90;78.50
24326;DHT22;12448;45.532;5.290;2023-04-25T09:25:36;12.90;78.80
24326;DHT22;12448;45.532;5.290;2023-04-25T09:28:10;13.00;78.60
24326;DHT22;12448;45.532;5.290;2023-04-25T09:30:36;13.00;77.00
24326;DHT22;12448;45.532;5.290;2023-04-25T09:33:10;12.90;76.60
24326;DHT22;12448;45.532;5.290;2023-04-25T09:35:42;13.00;75.40
24326;DHT22;12448;45.532;5.290;2023-04-25T09:38:09;12.90;75.50
24326;DHT22;12448;45.532;5.290;2023-04-25T09:40:43;13.00;75.70
24326;DHT22;12448;45.532;5.290;2023-04-25T09:43:30;13.20;77.40
24326;DHT22;12448;45.532;5.290;2023-04-25T09:45:55;13.30;75.10
24326;DHT22;12448;45.532;5.290;2023-04-25T09:48:27;13.30;73.80
24326;DHT22;12448;45.532;5.290;2023-04-25T09:51:12;13.30;72.30
24326;DHT22;12448;45.532;5.290;2023-04-25T09:53:40;13.30;75.00
24326;DHT22;12448;45.532;5.290;2023-04-25T09:56:08;13.40;74.90
24326;DHT22;12448;45.532;5.290;2023-04-25T09:58:35;13.50;72.80
24326;DHT22;12448;45.532;5.290;2023-04-25T10:01:07;13.30;68.70
24326;DHT22;12448;45.532;5.290;2023-04-25T10:03:34;13.30;70.70
24326;DHT22;12448;45.532;5.290;2023-04-25T10:06:02;13.40;69.40
24326;DHT22;12448;45.532;5.290;2023-04-25T10:08:38;13.40;68.40
24326;DHT22;12448;45.532;5.290;2023-04-25T10:11:05;13.30;68.10
24326;DHT22;12448;45.532;5.290;2023-04-25T10:13:32;13.40;66.00
24326;DHT22;12448;45.532;5.290;2023-04-25T10:15:58;13.50;68.20
24326;DHT22;12448;45.532;5.290;2023-04-25T10:18:26;13.50;66.00
24326;DHT22;12448;45.532;5.290;2023-04-25T10:21:00;13.50;61.60
24326;DHT22;12448;45.532;5.290;2023-04-25T10:23:30;13.40;59.10
24326;DHT22;12448;45.532;5.290;2023-04-25T10:25:57;13.50;60.50
24326;DHT22;12448;45.532;5.290;2023-04-25T10:28:24;13.50;62.30
24326;DHT22;12448;45.532;5.290;2023-04-25T10:31:07;13.60;64.40
24326;DHT22;12448;45.532;5.290;2023-04-25T10:33:38;13.70;67.20
24326;DHT22;12448;45.532;5.290;2023-04-25T10:36:20;13.70;67.90
24326;DHT22;12448;45.532;5.290;2023-04-25T10:38:50;13.70;69.20
24326;DHT22;12448;45.532;5.290;2023-04-25T10:41:18;13.60;70.90
24326;DHT22;12448;45.532;5.290;2023-04-25T10:43:46;13.70;71.40
24326;DHT22;12448;45.532;5.290;2023-04-25T10:46:27;13.70;69.10
24326;DHT22;12448;45.532;5.290;2023-04-25T10:49:00;13.90;69.80
24326;DHT22;12448;45.532;5.290;2023-04-25T10:51:30;14.00;68.70
24326;DHT22;12448;45.532;5.290;2023-04-25T10:56:40;14.40;66.50
24326;DHT22;12448;45.532;5.290;2023-04-25T10:59:12;14.60;67.00
24326;DHT22;12448;45.532;5.290;2023-04-25T11:01:43;14.80;65.90
24326;DHT22;12448;45.532;5.290;2023-04-25T11:04:31;14.90;65.80
24326;DHT22;12448;45.532;5.290;2023-04-25T11:07:19;15.00;62.30
24326;DHT22;12448;45.532;5.290;2023-04-25T11:09:49;15.10;62.90
24326;DHT22;12448;45.532;5.290;2023-04-25T11:12:15;15.10;63.80
24326;DHT22;12448;45.532;5.290;2023-04-25T11:14:42;15.00;63.80
24326;DHT22;12448;45.532;5.290;2023-04-25T11:17:08;14.70;64.40
24326;DHT22;12448;45.532;5.290;2023-04-25T11:19:34;14.40;65.90
24326;DHT22;12448;45.532;5.290;2023-04-25T11:22:01;14.30;66.70
24326;DHT22;12448;45.532;5.290;2023-04-25T11:27:18;14.20;67.70
24326;DHT22;12448;45.532;5.290;2023-04-25T11:29:44;14.30;67.10
24326;DHT22;12448;45.532;5.290;2023-04-25T11:32:31;14.60;68.00
24326;DHT22;12448;45.532;5.290;2023-04-25T11:35:05;14.70;65.30
24326;DHT22;12448;45.532;5.290;2023-04-25T11:37:31;14.90;64.60
24326;DHT22;12448;45.532;5.290;2023-04-25T11:39:57;15.00;64.30
24326;DHT22;12448;45.532;5.290;2023-04-25T11:42:23;14.70;63.60
24326;DHT22;12448;45.532;5.290;2023-04-25T11:44:49;14.60;65.20
24326;DHT22;12448;45.532;5.290;2023-04-25T11:47:14;14.50;65.30
24326;DHT22;12448;45.532;5.290;2023-04-25T11:49:40;14.40;62.50
24326;DHT22;12448;45.532;5.290;2023-04-25T11:52:07;14.50;61.80
24326;DHT22;12448;45.532;5.290;2023-04-25T11:54:36;14.70;62.70
24326;DHT22;12448;45.532;5.290;2023-04-25T11:57:02;14.80;62.60
24326;DHT22;12448;45.532;5.290;2023-04-25T11:59:28;14.90;60.70
24326;DHT22;12448;45.532;5.290;2023-04-25T12:01:54;15.00;62.30
24326;DHT22;12448;45.532;5.290;2023-04-25T12:04:22;15.20;62.00
24326;DHT22;12448;45.532;5.290;2023-04-25T12:06:53;15.40;63.90
24326;DHT22;12448;45.532;5.290;2023-04-25T12:09:21;15.40;64.70
24326;DHT22;12448;45.532;5.290;2023-04-25T12:11:53;15.40;64.10
24326;DHT22;12448;45.532;5.290;2023-04-25T12:14:24;15.30;63.00
24326;DHT22;12448;45.532;5.290;2023-04-25T12:16:50;15.10;60.90
24326;DHT22;12448;45.532;5.290;2023-04-25T12:19:20;15.10;62.80
24326;DHT22;12448;45.532;5.290;2023-04-25T12:21:47;15.20;63.00
24326;DHT22;12448;45.532;5.290;2023-04-25T12:26:47;15.40;62.80
24326;DHT22;12448;45.532;5.290;2023-04-25T12:29:16;15.40;61.30
24326;DHT22;12448;45.532;5.290;2023-04-25T12:31:42;15.10;60.50
24326;DHT22;12448;45.532;5.290;2023-04-25T12:34:08;15.00;61.70
24326;DHT22;12448;45.532;5.290;2023-04-25T12:36:33;15.10;63.40
24326;DHT22;12448;45.532;5.290;2023-04-25T12:38:59;15.20;61.10
24326;DHT22;12448;45.532;5.290;2023-04-25T12:41:29;15.20;59.80
24326;DHT22;12448;45.532;5.290;2023-04-25T12:43:55;15.30;62.00
24326;DHT22;12448;45.532;5.290;2023-04-25T12:46:21;15.20;62.80
24326;DHT22;12448;45.532;5.290;2023-04-25T12:49:14;15.40;62.40
24326;DHT22;12448;45.532;5.290;2023-04-25T12:52:12;15.40;59.40
24326;DHT22;12448;45.532;5.290;2023-04-25T12:54:38;15.30;59.50
24326;DHT22;12448;45.532;5.290;2023-04-25T12:57:33;15.30;60.30
24326;DHT22;12448;45.532;5.290;2023-04-25T12:59:59;15.40;60.00
24326;DHT22;12448;45.532;5.290;2023-04-25T13:02:25;15.40;59.00
24326;DHT22;12448;45.532;5.290;2023-04-25T13:04:51;15.30;58.90
24326;DHT22;12448;45.532;5.290;2023-04-25T13:07:17;15.30;60.00
24326;DHT22;12448;45.532;5.290;2023-04-25T13:09:42;15.20;59.70
24326;DHT22;12448;45.532;5.290;2023-04-25T13:12:08;15.10;59.90
24326;DHT22;12448;45.532;5.290;2023-04-25T13:14:34;15.20;61.20
24326;DHT22;12448;45.532;5.290;2023-04-25T13:16:59;15.20;61.40
24326;DHT22;12448;45.532;5.290;2023-04-25T13:19:25;15.10;61.90
24326;DHT22;12448;45.532;5.290;2023-04-25T13:21:51;15.00;60.90
24326;DHT22;12448;45.532;5.290;2023-04-25T13:24:17;14.90;59.80
24326;DHT22;12448;45.532;5.290;2023-04-25T13:26:43;15.10;59.80
24326;DHT22;12448;45.532;5.290;2023-04-25T13:29:09;15.20;58.40
24326;DHT22;12448;45.532;5.290;2023-04-25T13:31:34;15.40;60.20
24326;DHT22;12448;45.532;5.290;2023-04-25T13:34:00;15.40;59.10
24326;DHT22;12448;45.532;5.290;2023-04-25T13:36:26;15.60;59.00
24326;DHT22;12448;45.532;5.290;2023-04-25T13:38:51;15.60;57.70
24326;DHT22;12448;45.532;5.290;2023-04-25T13:41:17;15.70;58.10
24326;DHT22;12448;45.532;5.290;2023-04-25T13:43:45;15.90;58.90
24326;DHT22;12448;45.532;5.290;2023-04-25T13:46:12;16.00;58.40
24326;DHT22;12448;45.532;5.290;2023-04-25T13:48:38;16.10;58.00
24326;DHT22;12448;45.532;5.290;2023-04-25T13:51:04;16.20;60.00
24326;DHT22;12448;45.532;5.290;2023-04-25T13:53:29;16.20;59.20
24326;DHT22;12448;45.532;5.290;2023-04-25T13:55:55;16.30;58.50
24326;DHT22;12448;45.532;5.290;2023-04-25T13:58:21;16.30;57.40
24326;DHT22;12448;45.532;5.290;2023-04-25T14:00:47;16.40;58.00
24326;DHT22;12448;45.532;5.290;2023-04-25T14:03:13;16.30;56.00
24326;DHT22;12448;45.532;5.290;2023-04-25T14:05:39;16.20;55.60
24326;DHT22;12448;45.532;5.290;2023-04-25T14:08:08;16.20;56.70
24326;DHT22;12448;45.532;5.290;2023-04-25T14:10:34;16.20;56.80
24326;DHT22;12448;45.532;5.290;2023-04-25T14:13:00;16.20;57.70
24326;DHT22;12448;45.532;5.290;2023-04-25T14:15:26;16.20;57.60
24326;DHT22;12448;45.532;5.290;2023-04-25T14:17:52;15.90;56.20
24326;DHT22;12448;45.532;5.290;2023-04-25T14:20:18;15.60;57.00
24326;DHT22;12448;45.532;5.290;2023-04-25T14:22:46;15.60;58.30
24326;DHT22;12448;45.532;5.290;2023-04-25T14:25:11;15.40;60.80
24326;DHT22;12448;45.532;5.290;2023-04-25T14:27:37;15.50;58.00
24326;DHT22;12448;45.532;5.290;2023-04-25T14:30:03;15.70;59.20
24326;DHT22;12448;45.532;5.290;2023-04-25T14:32:30;15.90;58.00
24326;DHT22;12448;45.532;5.290;2023-04-25T14:34:57;16.00;58.50
24326;DHT22;12448;45.532;5.290;2023-04-25T14:37:23;16.10;56.80
24326;DHT22;12448;45.532;5.290;2023-04-25T14:39:48;16.10;57.10
24326;DHT22;12448;45.532;5.290;2023-04-25T14:42:14;16.20;56.50
24326;DHT22;12448;45.532;5.290;2023-04-25T14:44:39;16.10;56.20
24326;DHT22;12448;45.532;5.290;2023-04-25T14:47:05;16.10;55.30
24326;DHT22;12448;45.532;5.290;2023-04-25T14:49:32;16.20;55.40
24326;DHT22;12448;45.532;5.290;2023-04-25T14:51:57;16.00;56.00
24326;DHT22;12448;45.532;5.290;2023-04-25T14:54:23;16.10;54.50
24326;DHT22;12448;45.532;5.290;2023-04-25T14:56:48;16.10;54.50
24326;DHT22;12448;45.532;5.290;2023-04-25T14:59:14;16.20;55.20
24326;DHT22;12448;45.532;5.290;2023-04-25T15:01:40;16.20;54.90
24326;DHT22;12448;45.532;5.290;2023-04-25T15:04:05;16.30;53.70
24326;DHT22;12448;45.532;5.290;2023-04-25T15:06:31;16.20;53.90
24326;DHT22;12448;45.532;5.290;2023-04-25T15:08:57;16.30;54.80
24326;DHT22;12448;45.532;5.290;2023-04-25T15:11:22;16.20;54.40
24326;DHT22;12448;45.532;5.290;2023-04-25T15:13:48;16.20;52.60
24326;DHT22;12448;45.532;5.290;2023-04-25T15:16:14;16.30;53.10
24326;DHT22;12448;45.532;5.290;2023-04-25T15:18:39;16.30;54.00
24326;DHT22;12448;45.532;5.290;2023-04-25T15:21:05;16.40;54.80
24326;DHT22;12448;45.532;5.290;2023-04-25T15:23:42;16.40;52.30
24326;DHT22;12448;45.532;5.290;2023-04-25T15:26:08;16.40;53.50
24326;DHT22;12448;45.532;5.290;2023-04-25T15:28:34;16.40;55.10
24326;DHT22;12448;45.532;5.290;2023-04-25T15:30:59;16.40;55.00
24326;DHT22;12448;45.532;5.290;2023-04-25T15:33:25;16.40;54.10
24326;DHT22;12448;45.532;5.290;2023-04-25T15:35:51;16.30;52.40
24326;DHT22;12448;45.532;5.290;2023-04-25T15:38:17;16.40;53.10
24326;DHT22;12448;45.532;5.290;2023-04-25T15:40:42;16.30;52.80
24326;DHT22;12448;45.532;5.290;2023-04-25T15:43:08;16.30;53.30
24326;DHT22;12448;45.532;5.290;2023-04-25T15:45:42;16.20;54.70